sensor_id;sensor_type;location;lat;lon;timestamp;P1;durP1;ratioP1;P2;durP2;ratioP2
21727;SDS011;11026;50.560;17.852;2023-07-09T00:02:09;12.02;;;10.95;;
21727;SDS011;11026;50.560;17.852;2023-07-09T00:04:39;12.88;;;11.55;;
21727;SDS011;11026;50.560;17.852;2023-07-09T00:09:58;12.98;;;11.68;;
21727;SDS011;11026;50.560;17.852;2023-07-09T00:12:27;11.65;;;10.65;;
21727;SDS011;11026;50.560;17.852;2023-07-09T00:14:55;12.10;;;10.88;;
21727;SDS011;11026;50.560;17.852;2023-07-09T00:20:09;12.52;;;11.45;;
21727;SDS011;11026;50.560;17.852;2023-07-09T00:22:42;12.27;;;11.07;;
21727;SDS011;11026;50.560;17.852;2023-07-09T00:25:15;12.80;;;11.20;;
21727;SDS011;11026;50.560;17.852;2023-07-09T00:27:44;13.05;;;11.80;;
21727;SDS011;11026;50.560;17.852;2023-07-09T00:30:21;12.98;;;11.65;;
21727;SDS011;11026;50.560;17.852;2023-07-09T00:32:50;12.38;;;11.07;;
21727;SDS011;11026;50.560;17.852;2023-07-09T00:35:26;11.63;;;10.48;;
21727;SDS011;11026;50.560;17.852;2023-07-09T00:37:53;12.60;;;11.20;;
21727;SDS011;11026;50.560;17.852;2023-07-09T00:40:21;11.77;;;10.68;;
21727;SDS011;11026;50.560;17.852;2023-07-09T00:42:50;11.15;;;10.15;;
21727;SDS011;11026;50.560;17.852;2023-07-09T00:45:25;12.52;;;11.20;;
21727;SDS011;11026;50.560;17.852;2023-07-09T00:50:33;13.88;;;12.65;;
21727;SDS011;11026;50.560;17.852;2023-07-09T00:53:10;12.75;;;11.07;;
21727;SDS011;11026;50.560;17.852;2023-07-09T00:55:40;12.60;;;11.40;;
21727;SDS011;11026;50.560;17.852;2023-07-09T00:58:13;13.40;;;12.00;;
21727;SDS011;11026;50.560;17.852;2023-07-09T01:00:50;13.32;;;12.02;;
21727;SDS011;11026;50.560;17.852;2023-07-09T01:03:24;13.90;;;12.48;;
21727;SDS011;11026;50.560;17.852;2023-07-09T01:05:56;14.80;;;13.35;;
21727;SDS011;11026;50.560;17.852;2023-07-09T01:08:24;14.90;;;13.35;;
21727;SDS011;11026;50.560;17.852;2023-07-09T01:10:56;15.38;;;12.43;;
21727;SDS011;11026;50.560;17.852;2023-07-09T01:13:30;14.70;;;13.25;;
21727;SDS011;11026;50.560;17.852;2023-07-09T01:15:59;14.60;;;13.02;;
21727;SDS011;11026;50.560;17.852;2023-07-09T01:18:28;14.65;;;13.15;;
21727;SDS011;11026;50.560;17.852;2023-07-09T01:21:01;14.85;;;13.27;;
21727;SDS011;11026;50.560;17.852;2023-07-09T01:23:35;14.93;;;13.43;;
21727;SDS011;11026;50.560;17.852;2023-07-09T01:26:16;15.90;;;12.75;;
21727;SDS011;11026;50.560;17.852;2023-07-09T01:28:46;14.77;;;12.95;;
21727;SDS011;11026;50.560;17.852;2023-07-09T01:31:14;16.42;;;14.60;;
21727;SDS011;11026;50.560;17.852;2023-07-09T01:33:42;17.52;;;15.77;;
21727;SDS011;11026;50.560;17.852;2023-07-09T01:36:12;13.45;;;11.98;;
21727;SDS011;11026;50.560;17.852;2023-07-09T01:38:45;13.48;;;12.27;;
21727;SDS011;11026;50.560;17.852;2023-07-09T01:41:14;14.57;;;12.63;;
21727;SDS011;11026;50.560;17.852;2023-07-09T01:43:45;14.13;;;12.75;;
21727;SDS011;11026;50.560;17.852;2023-07-09T01:46:14;13.80;;;11.82;;
21727;SDS011;11026;50.560;17.852;2023-07-09T01:48:43;13.57;;;12.18;;
21727;SDS011;11026;50.560;17.852;2023-07-09T01:51:14;13.00;;;11.68;;
21727;SDS011;11026;50.560;17.852;2023-07-09T01:53:48;14.10;;;12.70;;
21727;SDS011;11026;50.560;17.852;2023-07-09T01:56:15;14.60;;;12.90;;
21727;SDS011;11026;50.560;17.852;2023-07-09T01:58:43;14.25;;;11.23;;
21727;SDS011;11026;50.560;17.852;2023-07-09T02:01:11;12.82;;;11.50;;
21727;SDS011;11026;50.560;17.852;2023-07-09T02:03:39;13.13;;;11.73;;
21727;SDS011;11026;50.560;17.852;2023-07-09T02:06:06;12.60;;;11.27;;
21727;SDS011;11026;50.560;17.852;2023-07-09T02:08:37;14.07;;;12.60;;
21727;SDS011;11026;50.560;17.852;2023-07-09T02:11:05;13.32;;;11.93;;
21727;SDS011;11026;50.560;17.852;2023-07-09T02:13:34;13.20;;;11.90;;
21727;SDS011;11026;50.560;17.852;2023-07-09T02:16:01;13.02;;;11.93;;
21727;SDS011;11026;50.560;17.852;2023-07-09T02:18:29;12.38;;;11.18;;
21727;SDS011;11026;50.560;17.852;2023-07-09T02:20:57;12.45;;;9.68;;
21727;SDS011;11026;50.560;17.852;2023-07-09T02:23:34;12.10;;;10.80;;
21727;SDS011;11026;50.560;17.852;2023-07-09T02:26:04;11.52;;;10.35;;
21727;SDS011;11026;50.560;17.852;2023-07-09T02:28:40;11.52;;;10.32;;
21727;SDS011;11026;50.560;17.852;2023-07-09T02:31:07;10.95;;;9.80;;
21727;SDS011;11026;50.560;17.852;2023-07-09T02:33:34;10.43;;;9.40;;
21727;SDS011;11026;50.560;17.852;2023-07-09T02:36:03;10.63;;;9.52;;
21727;SDS011;11026;50.560;17.852;2023-07-09T02:38:44;11.77;;;9.75;;
21727;SDS011;11026;50.560;17.852;2023-07-09T02:41:12;10.48;;;9.38;;
21727;SDS011;11026;50.560;17.852;2023-07-09T02:43:40;12.10;;;9.15;;
21727;SDS011;11026;50.560;17.852;2023-07-09T02:46:09;10.52;;;9.45;;
21727;SDS011;11026;50.560;17.852;2023-07-09T02:48:37;9.65;;;8.65;;
21727;SDS011;11026;50.560;17.852;2023-07-09T02:51:04;10.43;;;8.93;;
21727;SDS011;11026;50.560;17.852;2023-07-09T02:53:32;11.20;;;10.00;;
21727;SDS011;11026;50.560;17.852;2023-07-09T02:56:06;9.88;;;8.75;;
21727;SDS011;11026;50.560;17.852;2023-07-09T02:58:35;9.80;;;8.80;;
21727;SDS011;11026;50.560;17.852;2023-07-09T03:01:04;9.68;;;8.68;;
21727;SDS011;11026;50.560;17.852;2023-07-09T03:03:33;11.20;;;9.10;;
21727;SDS011;11026;50.560;17.852;2023-07-09T03:06:01;9.68;;;8.77;;
21727;SDS011;11026;50.560;17.852;2023-07-09T03:08:30;10.57;;;9.43;;
21727;SDS011;11026;50.560;17.852;2023-07-09T03:10:59;9.65;;;8.75;;
21727;SDS011;11026;50.560;17.852;2023-07-09T03:13:34;10.35;;;9.35;;
21727;SDS011;11026;50.560;17.852;2023-07-09T03:16:01;11.90;;;10.43;;
21727;SDS011;11026;50.560;17.852;2023-07-09T03:18:29;12.05;;;10.85;;
21727;SDS011;11026;50.560;17.852;2023-07-09T03:20:57;18.67;;;12.65;;
21727;SDS011;11026;50.560;17.852;2023-07-09T03:23:31;15.48;;;13.85;;
21727;SDS011;11026;50.560;17.852;2023-07-09T03:26:00;15.75;;;14.13;;
21727;SDS011;11026;50.560;17.852;2023-07-09T03:28:30;17.38;;;15.15;;
21727;SDS011;11026;50.560;17.852;2023-07-09T03:30:58;17.88;;;14.23;;
21727;SDS011;11026;50.560;17.852;2023-07-09T03:33:28;14.55;;;13.07;;
21727;SDS011;11026;50.560;17.852;2023-07-09T03:35:56;13.85;;;12.48;;
21727;SDS011;11026;50.560;17.852;2023-07-09T03:38:23;16.10;;;13.43;;
21727;SDS011;11026;50.560;17.852;2023-07-09T03:40:52;15.23;;;13.65;;
21727;SDS011;11026;50.560;17.852;2023-07-09T03:43:20;14.40;;;12.43;;
21727;SDS011;11026;50.560;17.852;2023-07-09T03:45:49;13.32;;;11.90;;
21727;SDS011;11026;50.560;17.852;2023-07-09T03:48:18;13.13;;;11.98;;
21727;SDS011;11026;50.560;17.852;2023-07-09T03:50:47;12.95;;;11.73;;
21727;SDS011;11026;50.560;17.852;2023-07-09T03:53:15;13.27;;;11.93;;
21727;SDS011;11026;50.560;17.852;2023-07-09T03:55:46;13.35;;;11.90;;
21727;SDS011;11026;50.560;17.852;2023-07-09T03:58:19;12.43;;;11.07;;
21727;SDS011;11026;50.560;17.852;2023-07-09T04:00:47;13.40;;;12.00;;
21727;SDS011;11026;50.560;17.852;2023-07-09T04:03:16;14.35;;;11.60;;
21727;SDS011;11026;50.560;17.852;2023-07-09T04:05:44;12.43;;;11.27;;
21727;SDS011;11026;50.560;17.852;2023-07-09T04:08:11;13.48;;;12.02;;
21727;SDS011;11026;50.560;17.852;2023-07-09T04:10:39;13.35;;;11.95;;
21727;SDS011;11026;50.560;17.852;2023-07-09T04:13:06;12.65;;;11.45;;
21727;SDS011;11026;50.560;17.852;2023-07-09T04:15:35;12.60;;;11.40;;
21727;SDS011;11026;50.560;17.852;2023-07-09T04:18:02;12.55;;;11.32;;
21727;SDS011;11026;50.560;17.852;2023-07-09T04:20:30;12.68;;;11.38;;
21727;SDS011;11026;50.560;17.852;2023-07-09T04:22:59;14.90;;;11.45;;
21727;SDS011;11026;50.560;17.852;2023-07-09T04:25:28;12.27;;;11.07;;
21727;SDS011;11026;50.560;17.852;2023-07-09T04:27:55;11.75;;;10.55;;
21727;SDS011;11026;50.560;17.852;2023-07-09T04:30:22;12.30;;;10.80;;
21727;SDS011;11026;50.560;17.852;2023-07-09T04:32:56;12.95;;;10.68;;
21727;SDS011;11026;50.560;17.852;2023-07-09T04:37:51;14.95;;;12.90;;
21727;SDS011;11026;50.560;17.852;2023-07-09T04:40:20;13.98;;;12.48;;
21727;SDS011;11026;50.560;17.852;2023-07-09T04:42:48;13.70;;;12.35;;
21727;SDS011;11026;50.560;17.852;2023-07-09T04:45:15;13.10;;;11.77;;
21727;SDS011;11026;50.560;17.852;2023-07-09T04:47:45;12.63;;;11.32;;
21727;SDS011;11026;50.560;17.852;2023-07-09T04:50:12;12.98;;;11.55;;
21727;SDS011;11026;50.560;17.852;2023-07-09T04:52:40;13.23;;;11.82;;
21727;SDS011;11026;50.560;17.852;2023-07-09T04:55:07;12.77;;;11.48;;
21727;SDS011;11026;50.560;17.852;2023-07-09T04:57:35;14.35;;;11.80;;
21727;SDS011;11026;50.560;17.852;2023-07-09T05:00:03;12.10;;;10.85;;
21727;SDS011;11026;50.560;17.852;2023-07-09T05:02:36;12.65;;;11.32;;
21727;SDS011;11026;50.560;17.852;2023-07-09T05:05:03;12.80;;;11.57;;
21727;SDS011;11026;50.560;17.852;2023-07-09T05:07:32;13.88;;;11.50;;
21727;SDS011;11026;50.560;17.852;2023-07-09T05:10:01;13.63;;;12.38;;
21727;SDS011;11026;50.560;17.852;2023-07-09T05:12:29;13.93;;;12.52;;
21727;SDS011;11026;50.560;17.852;2023-07-09T05:14:56;11.57;;;10.45;;
21727;SDS011;11026;50.560;17.852;2023-07-09T05:17:30;11.65;;;10.55;;
21727;SDS011;11026;50.560;17.852;2023-07-09T05:19:58;12.18;;;10.88;;
21727;SDS011;11026;50.560;17.852;2023-07-09T05:22:26;11.95;;;10.85;;
21727;SDS011;11026;50.560;17.852;2023-07-09T05:24:53;13.30;;;12.00;;
21727;SDS011;11026;50.560;17.852;2023-07-09T05:27:21;12.88;;;11.02;;
21727;SDS011;11026;50.560;17.852;2023-07-09T05:29:48;11.88;;;10.77;;
21727;SDS011;11026;50.560;17.852;2023-07-09T05:32:16;11.68;;;10.57;;
21727;SDS011;11026;50.560;17.852;2023-07-09T05:34:45;11.23;;;10.23;;
21727;SDS011;11026;50.560;17.852;2023-07-09T05:37:15;10.98;;;9.75;;
21727;SDS011;11026;50.560;17.852;2023-07-09T05:39:42;10.88;;;9.88;;
21727;SDS011;11026;50.560;17.852;2023-07-09T05:42:11;10.73;;;9.73;;
21727;SDS011;11026;50.560;17.852;2023-07-09T05:44:44;11.43;;;9.15;;
21727;SDS011;11026;50.560;17.852;2023-07-09T05:47:12;10.65;;;9.57;;
21727;SDS011;11026;50.560;17.852;2023-07-09T05:49:39;9.90;;;8.85;;
21727;SDS011;11026;50.560;17.852;2023-07-09T05:52:07;9.15;;;8.25;;
21727;SDS011;11026;50.560;17.852;2023-07-09T05:54:35;9.65;;;8.75;;
21727;SDS011;11026;50.560;17.852;2023-07-09T05:57:03;8.90;;;8.00;;
21727;SDS011;11026;50.560;17.852;2023-07-09T05:59:31;9.48;;;8.48;;
21727;SDS011;11026;50.560;17.852;2023-07-09T06:01:58;8.70;;;7.88;;
21727;SDS011;11026;50.560;17.852;2023-07-09T06:04:27;8.93;;;7.15;;
21727;SDS011;11026;50.560;17.852;2023-07-09T06:06:56;7.90;;;7.15;;
21727;SDS011;11026;50.560;17.852;2023-07-09T06:09:24;7.78;;;6.97;;
21727;SDS011;11026;50.560;17.852;2023-07-09T06:11:51;8.70;;;7.57;;
21727;SDS011;11026;50.560;17.852;2023-07-09T06:14:26;8.13;;;7.32;;
21727;SDS011;11026;50.560;17.852;2023-07-09T06:17:00;8.85;;;6.80;;
21727;SDS011;11026;50.560;17.852;2023-07-09T06:19:34;8.10;;;7.07;;
21727;SDS011;11026;50.560;17.852;2023-07-09T06:22:02;8.38;;;7.22;;
21727;SDS011;11026;50.560;17.852;2023-07-09T06:24:31;7.53;;;6.82;;
21727;SDS011;11026;50.560;17.852;2023-07-09T06:27:05;7.55;;;6.85;;
21727;SDS011;11026;50.560;17.852;2023-07-09T06:29:33;8.93;;;6.45;;
21727;SDS011;11026;50.560;17.852;2023-07-09T06:34:31;7.40;;;6.65;;
21727;SDS011;11026;50.560;17.852;2023-07-09T06:37:00;7.22;;;6.25;;
21727;SDS011;11026;50.560;17.852;2023-07-09T06:39:28;7.10;;;6.40;;
21727;SDS011;11026;50.560;17.852;2023-07-09T06:41:56;8.70;;;6.20;;
21727;SDS011;11026;50.560;17.852;2023-07-09T06:44:23;7.28;;;6.18;;
21727;SDS011;11026;50.560;17.852;2023-07-09T06:46:52;7.75;;;5.88;;
21727;SDS011;11026;50.560;17.852;2023-07-09T06:49:20;6.90;;;5.88;;
21727;SDS011;11026;50.560;17.852;2023-07-09T06:51:47;7.40;;;5.55;;
21727;SDS011;11026;50.560;17.852;2023-07-09T06:54:14;7.47;;;5.45;;
21727;SDS011;11026;50.560;17.852;2023-07-09T06:56:42;5.45;;;4.93;;
21727;SDS011;11026;50.560;17.852;2023-07-09T06:59:09;6.57;;;5.43;;
21727;SDS011;11026;50.560;17.852;2023-07-09T07:01:37;6.95;;;5.18;;
21727;SDS011;11026;50.560;17.852;2023-07-09T07:04:06;5.40;;;4.90;;
21727;SDS011;11026;50.560;17.852;2023-07-09T07:06:33;7.43;;;5.25;;
21727;SDS011;11026;50.560;17.852;2023-07-09T07:09:02;6.13;;;4.97;;
21727;SDS011;11026;50.560;17.852;2023-07-09T07:11:30;5.63;;;5.05;;
21727;SDS011;11026;50.560;17.852;2023-07-09T07:13:58;6.32;;;5.07;;
21727;SDS011;11026;50.560;17.852;2023-07-09T07:16:25;7.07;;;4.70;;
21727;SDS011;11026;50.560;17.852;2023-07-09T07:18:53;6.43;;;5.82;;
21727;SDS011;11026;50.560;17.852;2023-07-09T07:21:20;7.47;;;5.72;;
21727;SDS011;11026;50.560;17.852;2023-07-09T07:23:48;5.88;;;4.93;;
21727;SDS011;11026;50.560;17.852;2023-07-09T07:26:20;5.82;;;5.20;;
21727;SDS011;11026;50.560;17.852;2023-07-09T07:28:48;5.57;;;5.03;;
21727;SDS011;11026;50.560;17.852;2023-07-09T07:31:17;5.38;;;4.88;;
21727;SDS011;11026;50.560;17.852;2023-07-09T07:33:44;9.23;;;5.45;;
21727;SDS011;11026;50.560;17.852;2023-07-09T07:36:12;7.88;;;5.70;;
21727;SDS011;11026;50.560;17.852;2023-07-09T07:38:55;7.00;;;5.10;;
21727;SDS011;11026;50.560;17.852;2023-07-09T07:41:23;5.68;;;5.00;;
21727;SDS011;11026;50.560;17.852;2023-07-09T07:43:50;7.60;;;5.13;;
21727;SDS011;11026;50.560;17.852;2023-07-09T07:46:18;5.88;;;5.03;;
21727;SDS011;11026;50.560;17.852;2023-07-09T07:48:54;5.97;;;5.35;;
21727;SDS011;11026;50.560;17.852;2023-07-09T07:51:21;7.50;;;4.80;;
21727;SDS011;11026;50.560;17.852;2023-07-09T07:53:49;7.40;;;4.93;;
21727;SDS011;11026;50.560;17.852;2023-07-09T07:56:16;3.90;;;3.60;;
21727;SDS011;11026;50.560;17.852;2023-07-09T07:58:44;5.05;;;4.35;;
21727;SDS011;11026;50.560;17.852;2023-07-09T08:01:12;4.22;;;3.83;;
21727;SDS011;11026;50.560;17.852;2023-07-09T08:03:40;4.00;;;3.60;;
21727;SDS011;11026;50.560;17.852;2023-07-09T08:06:13;4.95;;;4.13;;
21727;SDS011;11026;50.560;17.852;2023-07-09T08:08:40;9.27;;;4.47;;
21727;SDS011;11026;50.560;17.852;2023-07-09T08:11:09;6.20;;;4.00;;
21727;SDS011;11026;50.560;17.852;2023-07-09T08:13:37;5.47;;;4.30;;
21727;SDS011;11026;50.560;17.852;2023-07-09T08:16:07;4.05;;;3.72;;
21727;SDS011;11026;50.560;17.852;2023-07-09T08:18:36;5.85;;;3.53;;
21727;SDS011;11026;50.560;17.852;2023-07-09T08:21:04;4.53;;;3.65;;
21727;SDS011;11026;50.560;17.852;2023-07-09T08:23:32;5.50;;;4.03;;
21727;SDS011;11026;50.560;17.852;2023-07-09T08:26:01;6.88;;;4.20;;
21727;SDS011;11026;50.560;17.852;2023-07-09T08:28:31;6.15;;;3.55;;
21727;SDS011;11026;50.560;17.852;2023-07-09T08:30:59;5.40;;;3.60;;
21727;SDS011;11026;50.560;17.852;2023-07-09T08:33:27;4.63;;;3.60;;
21727;SDS011;11026;50.560;17.852;2023-07-09T08:35:54;5.45;;;3.60;;
21727;SDS011;11026;50.560;17.852;2023-07-09T08:38:28;4.00;;;3.58;;
21727;SDS011;11026;50.560;17.852;2023-07-09T08:46:27;6.50;;;4.65;;
21727;SDS011;11026;50.560;17.852;2023-07-09T08:49:26;4.90;;;3.88;;
21727;SDS011;11026;50.560;17.852;2023-07-09T08:52:14;7.10;;;4.00;;
21727;SDS011;11026;50.560;17.852;2023-07-09T08:54:53;5.85;;;4.10;;
21727;SDS011;11026;50.560;17.852;2023-07-09T08:57:25;5.38;;;4.40;;
21727;SDS011;11026;50.560;17.852;2023-07-09T09:00:07;5.90;;;4.07;;
21727;SDS011;11026;50.560;17.852;2023-07-09T09:02:42;4.38;;;3.97;;
21727;SDS011;11026;50.560;17.852;2023-07-09T09:08:21;5.30;;;3.88;;
21727;SDS011;11026;50.560;17.852;2023-07-09T09:13:54;4.47;;;4.05;;
21727;SDS011;11026;50.560;17.852;2023-07-09T09:16:28;5.55;;;4.10;;
21727;SDS011;11026;50.560;17.852;2023-07-09T09:19:02;5.70;;;4.32;;
21727;SDS011;11026;50.560;17.852;2023-07-09T09:21:51;6.45;;;4.05;;
21727;SDS011;11026;50.560;17.852;2023-07-09T09:24:31;5.22;;;3.72;;
21727;SDS011;11026;50.560;17.852;2023-07-09T09:27:04;4.47;;;4.07;;
21727;SDS011;11026;50.560;17.852;2023-07-09T09:29:31;6.18;;;4.15;;
21727;SDS011;11026;50.560;17.852;2023-07-09T09:32:02;5.22;;;3.63;;
21727;SDS011;11026;50.560;17.852;2023-07-09T09:34:45;4.55;;;4.15;;
21727;SDS011;11026;50.560;17.852;2023-07-09T09:37:15;6.60;;;4.10;;
21727;SDS011;11026;50.560;17.852;2023-07-09T09:39:59;7.22;;;3.78;;
21727;SDS011;11026;50.560;17.852;2023-07-09T09:42:35;6.50;;;4.57;;
21727;SDS011;11026;50.560;17.852;2023-07-09T09:45:08;5.65;;;4.10;;
21727;SDS011;11026;50.560;17.852;2023-07-09T09:47:40;5.85;;;4.10;;
21727;SDS011;11026;50.560;17.852;2023-07-09T09:50:09;4.50;;;4.03;;
21727;SDS011;11026;50.560;17.852;2023-07-09T09:52:43;5.55;;;4.10;;
21727;SDS011;11026;50.560;17.852;2023-07-09T09:57:52;6.45;;;3.80;;
21727;SDS011;11026;50.560;17.852;2023-07-09T10:00:24;4.43;;;4.03;;
21727;SDS011;11026;50.560;17.852;2023-07-09T10:03:03;4.43;;;3.90;;
21727;SDS011;11026;50.560;17.852;2023-07-09T10:08:41;5.85;;;4.55;;
21727;SDS011;11026;50.560;17.852;2023-07-09T10:11:38;4.45;;;4.03;;
21727;SDS011;11026;50.560;17.852;2023-07-09T10:17:34;4.57;;;4.18;;
21727;SDS011;11026;50.560;17.852;2023-07-09T10:20:07;5.68;;;4.40;;
21727;SDS011;11026;50.560;17.852;2023-07-09T10:23:01;5.63;;;4.55;;
21727;SDS011;11026;50.560;17.852;2023-07-09T10:25:49;6.05;;;4.30;;
21727;SDS011;11026;50.560;17.852;2023-07-09T10:39:24;4.78;;;4.38;;
21727;SDS011;11026;50.560;17.852;2023-07-09T10:44:33;6.80;;;4.57;;
21727;SDS011;11026;50.560;17.852;2023-07-09T10:47:04;5.28;;;4.10;;
21727;SDS011;11026;50.560;17.852;2023-07-09T10:49:38;4.57;;;4.00;;
21727;SDS011;11026;50.560;17.852;2023-07-09T11:03:29;5.38;;;4.18;;
21727;SDS011;11026;50.560;17.852;2023-07-09T11:09:26;6.03;;;4.65;;
21727;SDS011;11026;50.560;17.852;2023-07-09T11:12:01;4.75;;;4.35;;
21727;SDS011;11026;50.560;17.852;2023-07-09T11:14:34;7.72;;;4.50;;
21727;SDS011;11026;50.560;17.852;2023-07-09T11:17:14;4.90;;;4.20;;
21727;SDS011;11026;50.560;17.852;2023-07-09T11:19:44;5.03;;;4.30;;
21727;SDS011;11026;50.560;17.852;2023-07-09T11:24:49;5.53;;;4.50;;
21727;SDS011;11026;50.560;17.852;2023-07-09T11:27:34;5.60;;;4.30;;
21727;SDS011;11026;50.560;17.852;2023-07-09T11:30:28;7.10;;;4.15;;
21727;SDS011;11026;50.560;17.852;2023-07-09T11:32:58;4.60;;;4.20;;
21727;SDS011;11026;50.560;17.852;2023-07-09T11:35:48;4.50;;;4.10;;
21727;SDS011;11026;50.560;17.852;2023-07-09T11:38:19;6.82;;;4.03;;
21727;SDS011;11026;50.560;17.852;2023-07-09T11:40:52;5.13;;;4.50;;
21727;SDS011;11026;50.560;17.852;2023-07-09T11:43:27;4.63;;;4.10;;
21727;SDS011;11026;50.560;17.852;2023-07-09T11:45:58;5.38;;;4.38;;
21727;SDS011;11026;50.560;17.852;2023-07-09T11:48:48;5.82;;;4.00;;
21727;SDS011;11026;50.560;17.852;2023-07-09T11:51:18;5.47;;;3.92;;
21727;SDS011;11026;50.560;17.852;2023-07-09T11:53:51;5.40;;;4.40;;
21727;SDS011;11026;50.560;17.852;2023-07-09T11:56:21;4.88;;;4.03;;
21727;SDS011;11026;50.560;17.852;2023-07-09T11:58:55;4.28;;;3.90;;
21727;SDS011;11026;50.560;17.852;2023-07-09T12:01:38;7.13;;;4.60;;
21727;SDS011;11026;50.560;17.852;2023-07-09T12:04:18;4.70;;;4.22;;
21727;SDS011;11026;50.560;17.852;2023-07-09T12:06:49;5.30;;;4.15;;
21727;SDS011;11026;50.560;17.852;2023-07-09T12:09:30;5.45;;;4.13;;
21727;SDS011;11026;50.560;17.852;2023-07-09T12:11:59;5.97;;;4.68;;
21727;SDS011;11026;50.560;17.852;2023-07-09T12:14:27;7.18;;;4.65;;
21727;SDS011;11026;50.560;17.852;2023-07-09T12:16:55;5.47;;;4.40;;
21727;SDS011;11026;50.560;17.852;2023-07-09T12:19:24;6.70;;;4.95;;
21727;SDS011;11026;50.560;17.852;2023-07-09T12:21:52;6.50;;;4.50;;
21727;SDS011;11026;50.560;17.852;2023-07-09T12:24:25;4.85;;;4.38;;
21727;SDS011;11026;50.560;17.852;2023-07-09T12:26:58;6.95;;;4.80;;
21727;SDS011;11026;50.560;17.852;2023-07-09T12:29:28;5.43;;;4.93;;
21727;SDS011;11026;50.560;17.852;2023-07-09T12:31:58;4.60;;;4.05;;
21727;SDS011;11026;50.560;17.852;2023-07-09T12:34:30;5.28;;;4.72;;
21727;SDS011;11026;50.560;17.852;2023-07-09T12:39:27;4.95;;;4.43;;
21727;SDS011;11026;50.560;17.852;2023-07-09T12:41:59;4.60;;;4.18;;
21727;SDS011;11026;50.560;17.852;2023-07-09T12:44:30;5.55;;;4.53;;
21727;SDS011;11026;50.560;17.852;2023-07-09T12:47:00;6.65;;;4.50;;
21727;SDS011;11026;50.560;17.852;2023-07-09T12:49:29;6.63;;;4.30;;
21727;SDS011;11026;50.560;17.852;2023-07-09T12:52:02;5.68;;;4.70;;
21727;SDS011;11026;50.560;17.852;2023-07-09T12:54:31;5.72;;;4.65;;
21727;SDS011;11026;50.560;17.852;2023-07-09T12:56:59;4.40;;;4.03;;
21727;SDS011;11026;50.560;17.852;2023-07-09T12:59:28;4.65;;;4.18;;
21727;SDS011;11026;50.560;17.852;2023-07-09T13:02:16;6.10;;;4.30;;
21727;SDS011;11026;50.560;17.852;2023-07-09T13:04:46;7.82;;;4.25;;
21727;SDS011;11026;50.560;17.852;2023-07-09T13:07:34;6.28;;;4.22;;
21727;SDS011;11026;50.560;17.852;2023-07-09T13:10:06;5.70;;;4.25;;
21727;SDS011;11026;50.560;17.852;2023-07-09T13:12:50;4.43;;;4.03;;
21727;SDS011;11026;50.560;17.852;2023-07-09T13:15:39;7.32;;;4.30;;
21727;SDS011;11026;50.560;17.852;2023-07-09T13:18:13;5.10;;;4.30;;
21727;SDS011;11026;50.560;17.852;2023-07-09T13:20:43;4.75;;;4.25;;
21727;SDS011;11026;50.560;17.852;2023-07-09T13:25:43;4.43;;;4.03;;
21727;SDS011;11026;50.560;17.852;2023-07-09T13:30:41;7.43;;;4.30;;
21727;SDS011;11026;50.560;17.852;2023-07-09T13:35:37;6.95;;;4.60;;
21727;SDS011;11026;50.560;17.852;2023-07-09T13:38:16;5.13;;;3.85;;
21727;SDS011;11026;50.560;17.852;2023-07-09T13:40:46;5.78;;;4.40;;
21727;SDS011;11026;50.560;17.852;2023-07-09T13:43:18;5.93;;;4.22;;
21727;SDS011;11026;50.560;17.852;2023-07-09T13:45:50;5.20;;;4.68;;
21727;SDS011;11026;50.560;17.852;2023-07-09T13:48:20;6.40;;;3.92;;
21727;SDS011;11026;50.560;17.852;2023-07-09T13:50:54;5.70;;;3.88;;
21727;SDS011;11026;50.560;17.852;2023-07-09T13:53:24;5.47;;;4.68;;
21727;SDS011;11026;50.560;17.852;2023-07-09T13:55:56;5.15;;;4.25;;
21727;SDS011;11026;50.560;17.852;2023-07-09T13:58:25;5.03;;;3.92;;
21727;SDS011;11026;50.560;17.852;2023-07-09T14:00:56;9.10;;;4.80;;
21727;SDS011;11026;50.560;17.852;2023-07-09T14:03:34;5.82;;;4.47;;
21727;SDS011;11026;50.560;17.852;2023-07-09T14:06:03;8.35;;;4.40;;
21727;SDS011;11026;50.560;17.852;2023-07-09T14:08:30;4.75;;;4.35;;
21727;SDS011;11026;50.560;17.852;2023-07-09T14:10:58;10.20;;;4.15;;
21727;SDS011;11026;50.560;17.852;2023-07-09T14:13:26;4.90;;;4.07;;
21727;SDS011;11026;50.560;17.852;2023-07-09T14:15:53;6.03;;;4.05;;
21727;SDS011;11026;50.560;17.852;2023-07-09T14:18:21;5.53;;;4.10;;
21727;SDS011;11026;50.560;17.852;2023-07-09T14:20:50;8.27;;;4.30;;
21727;SDS011;11026;50.560;17.852;2023-07-09T14:23:17;4.68;;;4.13;;
21727;SDS011;11026;50.560;17.852;2023-07-09T14:25:46;4.55;;;4.05;;
21727;SDS011;11026;50.560;17.852;2023-07-09T14:28:18;5.43;;;4.35;;
21727;SDS011;11026;50.560;17.852;2023-07-09T14:30:48;6.20;;;4.30;;
21727;SDS011;11026;50.560;17.852;2023-07-09T14:33:18;8.57;;;4.55;;
21727;SDS011;11026;50.560;17.852;2023-07-09T14:35:47;4.82;;;4.25;;
21727;SDS011;11026;50.560;17.852;2023-07-09T14:38:17;4.72;;;4.32;;
21727;SDS011;11026;50.560;17.852;2023-07-09T14:40:50;7.30;;;4.05;;
21727;SDS011;11026;50.560;17.852;2023-07-09T14:43:22;4.80;;;3.92;;
21727;SDS011;11026;50.560;17.852;2023-07-09T14:45:49;4.70;;;3.88;;
21727;SDS011;11026;50.560;17.852;2023-07-09T14:48:19;5.22;;;3.95;;
21727;SDS011;11026;50.560;17.852;2023-07-09T14:50:47;4.63;;;4.10;;
21727;SDS011;11026;50.560;17.852;2023-07-09T14:53:25;4.50;;;4.07;;
21727;SDS011;11026;50.560;17.852;2023-07-09T14:55:55;5.38;;;4.25;;
21727;SDS011;11026;50.560;17.852;2023-07-09T14:58:23;4.95;;;4.35;;
21727;SDS011;11026;50.560;17.852;2023-07-09T15:00:51;5.13;;;4.50;;
21727;SDS011;11026;50.560;17.852;2023-07-09T15:03:24;5.85;;;4.20;;
21727;SDS011;11026;50.560;17.852;2023-07-09T15:05:53;5.60;;;4.35;;
21727;SDS011;11026;50.560;17.852;2023-07-09T15:08:24;5.25;;;4.75;;
21727;SDS011;11026;50.560;17.852;2023-07-09T15:10:54;5.35;;;4.25;;
21727;SDS011;11026;50.560;17.852;2023-07-09T15:15:58;4.60;;;3.90;;
21727;SDS011;11026;50.560;17.852;2023-07-09T15:18:27;6.70;;;4.30;;
21727;SDS011;11026;50.560;17.852;2023-07-09T15:20:55;7.43;;;4.20;;
21727;SDS011;11026;50.560;17.852;2023-07-09T15:23:27;4.68;;;3.78;;
21727;SDS011;11026;50.560;17.852;2023-07-09T15:25:56;4.43;;;3.90;;
21727;SDS011;11026;50.560;17.852;2023-07-09T15:28:25;4.88;;;4.38;;
21727;SDS011;11026;50.560;17.852;2023-07-09T15:30:52;5.18;;;4.05;;
21727;SDS011;11026;50.560;17.852;2023-07-09T15:33:19;7.55;;;4.18;;
21727;SDS011;11026;50.560;17.852;2023-07-09T15:35:49;4.88;;;4.40;;
21727;SDS011;11026;50.560;17.852;2023-07-09T15:40:52;5.53;;;4.30;;
21727;SDS011;11026;50.560;17.852;2023-07-09T15:43:26;5.05;;;4.55;;
21727;SDS011;11026;50.560;17.852;2023-07-09T15:45:56;5.57;;;4.05;;
21727;SDS011;11026;50.560;17.852;2023-07-09T15:48:33;5.63;;;4.57;;
21727;SDS011;11026;50.560;17.852;2023-07-09T15:51:03;4.97;;;4.18;;
21727;SDS011;11026;50.560;17.852;2023-07-09T15:53:32;8.75;;;4.10;;
21727;SDS011;11026;50.560;17.852;2023-07-09T15:56:03;7.65;;;4.22;;
21727;SDS011;11026;50.560;17.852;2023-07-09T15:58:40;7.57;;;4.88;;
21727;SDS011;11026;50.560;17.852;2023-07-09T16:01:21;4.75;;;4.25;;
21727;SDS011;11026;50.560;17.852;2023-07-09T16:03:52;5.68;;;4.47;;
21727;SDS011;11026;50.560;17.852;2023-07-09T16:06:24;5.97;;;4.30;;
21727;SDS011;11026;50.560;17.852;2023-07-09T16:08:54;4.88;;;3.97;;